createdAt,value
2017-07-05T00:00:20.964Z,0
2017-07-05T00:01:20.740Z,0
2017-07-05T00:02:20.764Z,0
2017-07-05T00:03:20.793Z,0
2017-07-05T00:04:21.458Z,0
2017-07-05T00:05:21.150Z,0
2017-07-05T00:06:20.879Z,0
2017-07-05T00:07:21.237Z,0
2017-07-05T00:08:21.580Z,0
2017-07-05T00:09:21.610Z,0
2017-07-05T00:10:21.571Z,0
2017-07-05T00:11:21.663Z,0
2017-07-05T00:12:21.389Z,0
2017-07-05T00:13:21.712Z,0
2017-07-05T00:14:21.442Z,0
2017-07-05T00:15:21.763Z,0
2017-07-05T00:16:21.492Z,0
2017-07-05T00:17:21.193Z,0
2017-07-05T00:18:21.546Z,0
2017-07-05T00:19:21.580Z,0
2017-07-05T00:20:21.259Z,0
2017-07-05T00:21:21.975Z,0
2017-07-05T00:22:21.659Z,0
2017-07-05T00:23:22.018Z,0
2017-07-05T00:24:21.397Z,0
2017-07-05T00:25:22.007Z,0
2017-07-05T00:26:21.468Z,0
2017-07-05T00:27:21.818Z,0
2017-07-05T00:28:22.169Z,0
2017-07-05T00:29:21.559Z,0
2017-07-05T00:30:21.880Z,0
2017-07-05T00:31:21.943Z,0
2017-07-05T00:32:21.961Z,0
2017-07-05T00:33:22.305Z,0
2017-07-05T00:34:21.378Z,0
2017-07-05T00:35:22.291Z,0
2017-07-05T00:36:22.404Z,0
2017-07-05T00:37:21.465Z,0
2017-07-05T00:38:21.805Z,0
2017-07-05T00:39:22.155Z,0
2017-07-05T00:40:22.435Z,0
2017-07-05T00:41:22.224Z,0
2017-07-05T00:42:21.937Z,0
2017-07-05T00:43:22.273Z,0
2017-07-05T00:44:22.290Z,0
2017-07-05T00:45:22.940Z,0
2017-07-05T00:46:22.044Z,0
2017-07-05T00:47:22.708Z,0
2017-07-05T00:48:22.094Z,0
2017-07-05T00:49:22.135Z,0
2017-07-05T00:50:22.459Z,0
2017-07-05T00:51:22.183Z,0
2017-07-05T00:52:22.542Z,0
2017-07-05T00:53:22.249Z,0
2017-07-05T00:54:22.287Z,0
2017-07-05T00:55:23.206Z,0
2017-07-05T00:56:22.992Z,0
2017-07-05T00:57:22.371Z,0
2017-07-05T00:58:22.724Z,0
2017-07-05T00:59:22.426Z,0
2017-07-05T01:00:22.702Z,0
2017-07-05T01:01:22.800Z,0
2017-07-05T01:02:23.149Z,0
2017-07-05T01:03:23.186Z,0
2017-07-05T01:04:23.208Z,0
2017-07-05T01:05:23.482Z,0
2017-07-05T01:06:23.265Z,0
2017-07-05T01:07:23.294Z,0
2017-07-05T01:08:23.325Z,0
2017-07-05T01:09:23.082Z,0
2017-07-05T01:10:23.640Z,0
2017-07-05T01:11:23.415Z,0
2017-07-05T01:12:23.435Z,0
2017-07-05T01:13:23.145Z,0
2017-07-05T01:14:22.854Z,0
2017-07-05T01:15:23.199Z,0
2017-07-05T01:16:23.232Z,0
2017-07-05T01:17:23.276Z,0
2017-07-05T01:18:22.661Z,0
2017-07-05T01:19:23.003Z,0
2017-07-05T01:20:23.667Z,0
2017-07-05T01:21:23.351Z,0
2017-07-05T01:22:23.080Z,0
2017-07-05T01:23:23.435Z,0
2017-07-05T01:24:23.522Z,0
2017-07-05T01:25:23.483Z,0
2017-07-05T01:26:23.444Z,0
2017-07-05T01:27:23.231Z,0
2017-07-05T01:28:23.262Z,0
2017-07-05T01:29:23.621Z,0
2017-07-05T01:30:23.323Z,0
2017-07-05T01:31:23.328Z,0
2017-07-05T01:32:23.364Z,0
2017-07-05T01:33:24.055Z,0
2017-07-05T01:34:23.438Z,0
2017-07-05T01:35:23.783Z,0
2017-07-05T01:36:23.793Z,0
2017-07-05T01:37:24.152Z,0
2017-07-05T01:38:23.869Z,0
2017-07-05T01:39:24.215Z,0
2017-07-05T01:40:23.291Z,0
2017-07-05T01:41:24.528Z,0
2017-07-05T01:42:24.305Z,0
2017-07-05T01:43:23.697Z,0
2017-07-05T01:44:24.362Z,0
2017-07-05T01:45:24.395Z,0
2017-07-05T01:46:24.723Z,0
2017-07-05T01:47:24.137Z,0
2017-07-05T01:48:24.151Z,0
2017-07-05T01:49:24.182Z,0
2017-07-05T01:50:24.555Z,0
2017-07-05T01:51:24.810Z,0
2017-07-05T01:52:24.277Z,0
2017-07-05T01:53:24.302Z,0
2017-07-05T01:54:24.354Z,0
2017-07-05T01:55:24.364Z,0
2017-07-05T01:56:24.680Z,0
2017-07-05T01:57:24.425Z,0
2017-07-05T01:58:24.450Z,0
2017-07-05T01:59:24.791Z,0
2017-07-05T02:00:24.495Z,0
2017-07-05T02:01:25.168Z,0
2017-07-05T02:02:23.929Z,0
2017-07-05T02:03:24.590Z,0
2017-07-05T02:04:24.310Z,0
2017-07-05T02:05:24.339Z,0
2017-07-05T02:06:24.620Z,0
2017-07-05T02:07:24.393Z,0
2017-07-05T02:08:24.734Z,0
2017-07-05T02:09:24.770Z,0
2017-07-05T02:10:24.472Z,0
2017-07-05T02:11:24.112Z,0
2017-07-05T02:12:24.540Z,0
2017-07-05T02:13:24.929Z,0
2017-07-05T02:14:24.899Z,0
2017-07-05T02:15:24.615Z,0
2017-07-05T02:16:25.289Z,0
2017-07-05T02:17:24.985Z,0
2017-07-05T02:18:25.357Z,0
2017-07-05T02:19:25.050Z,0
2017-07-05T02:20:25.407Z,0
2017-07-05T02:21:25.367Z,0
2017-07-05T02:22:24.497Z,0
2017-07-05T02:23:25.161Z,0
2017-07-05T02:24:25.190Z,0
2017-07-05T02:25:24.903Z,0
2017-07-05T02:26:25.599Z,0
2017-07-05T02:27:24.957Z,0
2017-07-05T02:28:25.637Z,0
2017-07-05T02:29:24.698Z,0
2017-07-05T02:30:25.046Z,0
2017-07-05T02:31:25.369Z,0
2017-07-05T02:32:25.753Z,0
2017-07-05T02:33:25.440Z,0
2017-07-05T02:34:25.810Z,0
2017-07-05T02:35:25.831Z,0
2017-07-05T02:36:26.121Z,0
2017-07-05T02:37:25.889Z,0
2017-07-05T02:38:25.610Z,0
2017-07-05T02:39:25.610Z,0
2017-07-05T02:40:25.034Z,0
2017-07-05T02:41:25.926Z,0
2017-07-05T02:42:26.043Z,0
2017-07-05T02:43:25.417Z,0
2017-07-05T02:44:25.775Z,0
2017-07-05T02:45:25.475Z,0
2017-07-05T02:46:26.132Z,0
2017-07-05T02:47:26.176Z,0
2017-07-05T02:48:26.205Z,0
2017-07-05T02:49:25.906Z,0
2017-07-05T02:50:25.623Z,0
2017-07-05T02:51:26.212Z,0
2017-07-05T02:52:25.680Z,0
2017-07-05T02:53:25.394Z,0
2017-07-05T02:54:25.733Z,0
2017-07-05T02:55:26.087Z,0
2017-07-05T02:56:26.417Z,0
2017-07-05T02:57:26.213Z,0
2017-07-05T02:58:26.494Z,0
2017-07-05T02:59:26.518Z,0
2017-07-05T03:00:26.236Z,0
2017-07-05T03:01:26.189Z,0
2017-07-05T03:02:26.298Z,0
2017-07-05T03:03:26.634Z,0
2017-07-05T03:04:26.659Z,0
2017-07-05T03:05:26.379Z,0
2017-07-05T03:06:27.024Z,0
2017-07-05T03:07:26.432Z,0
2017-07-05T03:08:26.790Z,0
2017-07-05T03:09:26.485Z,0
2017-07-05T03:10:26.848Z,0
2017-07-05T03:11:26.527Z,0
2017-07-05T03:12:26.945Z,0
2017-07-05T03:13:26.978Z,0
2017-07-05T03:14:26.318Z,0
2017-07-05T03:15:26.007Z,0
2017-07-05T03:16:26.932Z,0
2017-07-05T03:17:27.033Z,0
2017-07-05T03:18:26.765Z,0
2017-07-05T03:19:26.762Z,0
2017-07-05T03:20:26.800Z,0
2017-07-05T03:21:26.745Z,0
2017-07-05T03:22:27.164Z,0
2017-07-05T03:23:27.213Z,0
2017-07-05T03:24:26.928Z,0
2017-07-05T03:25:26.949Z,0
2017-07-05T03:26:27.272Z,0
2017-07-05T03:27:26.694Z,0
2017-07-05T03:28:27.039Z,0
2017-07-05T03:29:27.054Z,0
2017-07-05T03:30:27.408Z,0
2017-07-05T03:31:26.788Z,0
2017-07-05T03:32:27.153Z,0
2017-07-05T03:33:26.543Z,0
2017-07-05T03:34:27.210Z,0
2017-07-05T03:35:26.916Z,0
2017-07-05T03:36:27.888Z,0
2017-07-05T03:37:27.293Z,0
2017-07-05T03:38:26.685Z,0
2017-07-05T03:39:26.703Z,0
2017-07-05T03:40:27.379Z,0
2017-07-05T03:41:27.643Z,0
2017-07-05T03:42:27.117Z,0
2017-07-05T03:43:27.786Z,0
2017-07-05T03:44:27.490Z,0
2017-07-05T03:45:27.512Z,0
2017-07-05T03:46:28.175Z,0
2017-07-05T03:47:27.889Z,0
2017-07-05T03:48:27.605Z,0
2017-07-05T03:49:27.640Z,0
2017-07-05T03:50:27.339Z,0
2017-07-05T03:51:27.980Z,0
2017-07-05T03:52:27.716Z,0
2017-07-05T03:53:27.428Z,0
2017-07-05T03:54:27.771Z,0
2017-07-05T03:55:27.855Z,0
2017-07-05T03:56:28.459Z,0
2017-07-05T03:57:28.185Z,0
2017-07-05T03:58:28.222Z,0
2017-07-05T03:59:27.914Z,0
2017-07-05T04:00:28.263Z,0
2017-07-05T04:01:27.665Z,0
2017-07-05T04:02:27.929Z,0
2017-07-05T04:03:28.041Z,0
2017-07-05T04:04:28.054Z,0
2017-07-05T04:05:28.404Z,0
2017-07-05T04:06:28.449Z,0
2017-07-05T04:07:28.397Z,0
2017-07-05T04:08:28.178Z,0
2017-07-05T04:09:28.199Z,0
2017-07-05T04:10:28.231Z,0
2017-07-05T04:11:28.592Z,0
2017-07-05T04:12:28.538Z,0
2017-07-05T04:13:28.642Z,0
2017-07-05T04:14:28.031Z,0
2017-07-05T04:15:28.380Z,0
2017-07-05T04:16:28.403Z,0
2017-07-05T04:17:28.728Z,0
2017-07-05T04:18:28.454Z,0
2017-07-05T04:19:28.799Z,0
2017-07-05T04:20:28.523Z,0
2017-07-05T04:21:28.873Z,0
2017-07-05T04:22:28.869Z,0
2017-07-05T04:23:28.602Z,0
2017-07-05T04:24:28.946Z,0
2017-07-05T04:25:29.000Z,0
2017-07-05T04:26:29.012Z,0
2017-07-05T04:27:29.021Z,0
2017-07-05T04:28:28.741Z,0
2017-07-05T04:29:29.086Z,0
2017-07-05T04:30:28.807Z,0
2017-07-05T04:31:28.840Z,0
2017-07-05T04:32:29.160Z,0
2017-07-05T04:33:28.573Z,0
2017-07-05T04:34:28.278Z,0
2017-07-05T04:35:29.278Z,0
2017-07-05T04:36:29.307Z,0
2017-07-05T04:37:29.254Z,0
2017-07-05T04:38:29.361Z,0
2017-07-05T04:39:29.070Z,0
2017-07-05T04:40:29.432Z,0
2017-07-05T04:41:29.127Z,0
2017-07-05T04:42:29.441Z,5
2017-07-05T04:43:29.170Z,5
2017-07-05T04:44:29.216Z,5
2017-07-05T04:45:29.231Z,5
2017-07-05T04:46:29.257Z,5
2017-07-05T04:47:29.624Z,5
2017-07-05T04:48:29.642Z,5
2017-07-05T04:49:29.358Z,5
2017-07-05T04:50:29.698Z,5
2017-07-05T04:51:29.083Z,5
2017-07-05T04:52:29.364Z,5
2017-07-05T04:53:29.461Z,5
2017-07-05T04:54:29.507Z,5
2017-07-05T04:55:29.212Z,5
2017-07-05T04:56:29.548Z,5
2017-07-05T04:57:29.877Z,5
2017-07-05T04:58:28.969Z,5
2017-07-05T04:59:29.971Z,5
2017-07-05T05:00:29.343Z,5
2017-07-05T05:01:29.695Z,5
2017-07-05T05:02:30.012Z,5
2017-07-05T05:03:29.434Z,5
2017-07-05T05:04:30.087Z,5
2017-07-05T05:05:29.488Z,5
2017-07-05T05:06:30.157Z,5
2017-07-05T05:07:30.160Z,5
2017-07-05T05:08:30.270Z,5
2017-07-05T05:09:29.915Z,5
2017-07-05T05:10:29.947Z,5
2017-07-05T05:11:30.304Z,5
2017-07-05T05:12:29.616Z,5
2017-07-05T05:13:29.387Z,5
2017-07-05T05:14:29.747Z,5
2017-07-05T05:15:30.098Z,5
2017-07-05T05:16:30.428Z,5
2017-07-05T05:17:30.725Z,5
2017-07-05T05:18:30.565Z,5
2017-07-05T05:19:30.525Z,5
2017-07-05T05:20:30.228Z,5
2017-07-05T05:21:30.263Z,5
2017-07-05T05:22:30.288Z,5
2017-07-05T05:23:30.298Z,5
2017-07-05T05:24:30.359Z,5
2017-07-05T05:25:30.060Z,5
2017-07-05T05:26:29.764Z,5
2017-07-05T05:27:30.436Z,5
2017-07-05T05:28:30.791Z,5
2017-07-05T05:29:30.802Z,5
2017-07-05T05:30:30.199Z,5
2017-07-05T05:31:30.547Z,5
2017-07-05T05:32:30.884Z,5
2017-07-05T05:33:30.850Z,5
2017-07-05T05:34:30.639Z,5
2017-07-05T05:35:30.343Z,5
2017-07-05T05:36:30.052Z,5
2017-07-05T05:37:30.723Z,5
2017-07-05T05:38:31.053Z,5
2017-07-05T05:39:31.098Z,5
2017-07-05T05:40:30.804Z,5
2017-07-05T05:41:30.505Z,5
2017-07-05T05:42:30.858Z,5
2017-07-05T05:43:31.485Z,5
2017-07-05T05:44:30.602Z,5
2017-07-05T05:45:30.949Z,5
2017-07-05T05:46:30.649Z,5
2017-07-05T05:47:31.330Z,5
2017-07-05T05:48:31.283Z,5
2017-07-05T05:49:31.379Z,5
2017-07-05T05:50:31.079Z,5
2017-07-05T05:51:31.115Z,5
2017-07-05T05:52:31.157Z,5
2017-07-05T05:53:31.151Z,5
2017-07-05T05:54:31.210Z,5
2017-07-05T05:55:31.236Z,5
2017-07-05T05:56:31.408Z,5
2017-07-05T05:57:31.613Z,5
2017-07-05T05:58:31.566Z,5
2017-07-05T05:59:31.671Z,5
2017-07-05T06:00:31.071Z,5
2017-07-05T06:01:30.769Z,5
2017-07-05T06:02:31.446Z,5
2017-07-05T06:03:31.771Z,5
2017-07-05T06:04:31.501Z,5
2017-07-05T06:05:31.848Z,5
2017-07-05T06:06:31.228Z,5
2017-07-05T06:07:31.889Z,5
2017-07-05T06:08:31.854Z,5
2017-07-05T06:09:31.953Z,5
2017-07-05T06:10:31.999Z,5
2017-07-05T06:11:31.693Z,5
2017-07-05T06:12:31.733Z,5
2017-07-05T06:13:31.994Z,5
2017-07-05T06:14:32.155Z,5
2017-07-05T06:15:31.795Z,5
2017-07-05T06:16:31.517Z,10
2017-07-05T06:17:31.852Z,10
2017-07-05T06:18:32.146Z,10
2017-07-05T06:19:31.599Z,10
2017-07-05T06:20:32.275Z,10
2017-07-05T06:21:31.668Z,10
2017-07-05T06:22:31.992Z,10
2017-07-05T06:23:32.286Z,10
2017-07-05T06:24:32.388Z,10
2017-07-05T06:25:32.160Z,10
2017-07-05T06:26:31.804Z,10
2017-07-05T06:27:32.154Z,10
2017-07-05T06:28:32.758Z,10
2017-07-05T06:29:32.534Z,10
2017-07-05T06:30:32.567Z,10
2017-07-05T06:31:32.269Z,10
2017-07-05T06:32:31.977Z,10
2017-07-05T06:33:32.937Z,10
2017-07-05T06:34:32.368Z,10
2017-07-05T06:35:32.392Z,10
2017-07-05T06:36:32.414Z,10
2017-07-05T06:37:32.442Z,10
2017-07-05T06:38:31.813Z,10
2017-07-05T06:39:32.186Z,10
2017-07-05T06:40:32.208Z,10
2017-07-05T06:41:32.564Z,10
2017-07-05T06:42:32.269Z,10
2017-07-05T06:43:32.543Z,10
2017-07-05T06:44:32.318Z,10
2017-07-05T06:45:32.352Z,10
2017-07-05T06:46:32.705Z,10
2017-07-05T06:47:32.405Z,10
2017-07-05T06:48:32.117Z,10
2017-07-05T06:49:33.042Z,10
2017-07-05T06:50:32.819Z,10
2017-07-05T06:51:32.849Z,10
2017-07-05T06:52:32.545Z,10
2017-07-05T06:53:33.213Z,10
2017-07-05T06:54:33.188Z,10
2017-07-05T06:55:33.279Z,10
2017-07-05T06:56:32.985Z,10
2017-07-05T06:57:32.699Z,10
2017-07-05T06:58:33.368Z,10
2017-07-05T06:59:33.323Z,10
2017-07-05T07:00:32.779Z,10
2017-07-05T07:01:33.453Z,10
2017-07-05T07:02:33.476Z,10
2017-07-05T07:03:33.519Z,10
2017-07-05T07:04:33.506Z,10
2017-07-05T07:05:32.915Z,10
2017-07-05T07:06:33.268Z,10
2017-07-05T07:07:33.301Z,10
2017-07-05T07:08:33.329Z,10
2017-07-05T07:09:33.975Z,10
2017-07-05T07:10:33.064Z,10
2017-07-05T07:11:33.416Z,10
2017-07-05T07:12:33.448Z,10
2017-07-05T07:13:33.141Z,10
2017-07-05T07:14:33.734Z,10
2017-07-05T07:15:33.531Z,10
2017-07-05T07:16:33.880Z,10
2017-07-05T07:17:33.269Z,10
2017-07-05T07:18:33.954Z,10
2017-07-05T07:19:33.954Z,10
2017-07-05T07:20:33.666Z,10
2017-07-05T07:21:33.387Z,10
2017-07-05T07:22:33.409Z,10
2017-07-05T07:23:33.762Z,10
2017-07-05T07:24:33.783Z,10
2017-07-05T07:25:33.824Z,10
2017-07-05T07:26:33.857Z,10
2017-07-05T07:27:34.205Z,10
2017-07-05T07:28:34.230Z,10
2017-07-05T07:29:34.200Z,10
2017-07-05T07:30:34.288Z,10
2017-07-05T07:31:33.985Z,10
2017-07-05T07:32:33.708Z,10
2017-07-05T07:33:34.366Z,10
2017-07-05T07:34:34.384Z,10
2017-07-05T07:35:34.436Z,10
2017-07-05T07:36:33.818Z,10
2017-07-05T07:37:34.485Z,10
2017-07-05T07:38:34.199Z,10
2017-07-05T07:39:34.211Z,10
2017-07-05T07:40:34.580Z,10
2017-07-05T07:41:34.644Z,10
2017-07-05T07:42:34.620Z,10
2017-07-05T07:43:34.667Z,10
2017-07-05T07:44:34.943Z,10
2017-07-05T07:45:34.455Z,10
2017-07-05T07:46:34.436Z,10
2017-07-05T07:47:34.457Z,10
2017-07-05T07:48:34.490Z,10
2017-07-05T07:49:35.087Z,10
2017-07-05T07:50:33.900Z,10
2017-07-05T07:51:34.261Z,10
2017-07-05T07:52:34.282Z,10
2017-07-05T07:53:34.302Z,10
2017-07-05T07:54:34.959Z,10
2017-07-05T07:55:34.699Z,10
2017-07-05T07:56:34.400Z,10
2017-07-05T07:57:34.097Z,10
2017-07-05T07:58:34.778Z,10
2017-07-05T07:59:35.057Z,10
2017-07-05T08:00:35.147Z,10
2017-07-05T08:01:35.190Z,10
2017-07-05T08:02:34.557Z,10
2017-07-05T08:03:34.270Z,10
2017-07-05T08:04:35.519Z,10
2017-07-05T08:05:34.979Z,10
2017-07-05T08:06:34.684Z,10
2017-07-05T08:07:35.353Z,10
2017-07-05T08:08:35.377Z,10
2017-07-05T08:09:35.387Z,10
2017-07-05T08:10:35.125Z,10
2017-07-05T08:11:35.153Z,10
2017-07-05T08:12:34.885Z,10
2017-07-05T08:13:35.518Z,10
2017-07-05T08:14:35.811Z,10
2017-07-05T08:15:35.264Z,10
2017-07-05T08:16:35.288Z,10
2017-07-05T08:17:35.009Z,10
2017-07-05T08:18:35.370Z,10
2017-07-05T08:19:35.318Z,10
2017-07-05T08:20:35.098Z,10
2017-07-05T08:21:35.129Z,10
2017-07-05T08:22:35.785Z,10
2017-07-05T08:23:35.504Z,10
2017-07-05T08:24:35.519Z,10
2017-07-05T08:25:35.283Z,10
2017-07-05T08:26:35.590Z,10
2017-07-05T08:27:35.621Z,10
2017-07-05T08:28:35.972Z,10
2017-07-05T08:29:35.658Z,10
2017-07-05T08:30:36.020Z,10
2017-07-05T08:31:36.052Z,10
2017-07-05T08:32:36.071Z,10
2017-07-05T08:33:36.117Z,10
2017-07-05T08:34:35.179Z,10
2017-07-05T08:35:36.143Z,10
2017-07-05T08:36:35.552Z,10
2017-07-05T08:37:36.225Z,10
2017-07-05T08:38:35.934Z,10
2017-07-05T08:39:36.283Z,10
2017-07-05T08:40:36.607Z,10
2017-07-05T08:41:35.718Z,10
2017-07-05T08:42:36.040Z,10
2017-07-05T08:43:35.765Z,10
2017-07-05T08:44:36.436Z,10
2017-07-05T08:45:36.424Z,10
2017-07-05T08:46:35.848Z,15
2017-07-05T08:47:36.189Z,15
2017-07-05T08:48:36.234Z,15
2017-07-05T08:49:36.575Z,15
2017-07-05T08:50:36.582Z,15
2017-07-05T08:51:35.675Z,15
2017-07-05T08:52:36.351Z,15
2017-07-05T08:53:36.698Z,15
2017-07-05T08:54:36.389Z,15
2017-07-05T08:55:36.369Z,15
2017-07-05T08:56:36.481Z,15
2017-07-05T08:57:36.813Z,15
2017-07-05T08:58:36.206Z,15
2017-07-05T08:59:36.875Z,15
2017-07-05T09:00:37.192Z,15
2017-07-05T09:01:36.609Z,15
2017-07-05T09:02:36.960Z,15
2017-07-05T09:03:36.974Z,15
2017-07-05T09:04:36.690Z,15
2017-07-05T09:05:36.632Z,15
2017-07-05T09:06:36.429Z,15
2017-07-05T09:07:36.777Z,15
2017-07-05T09:08:36.810Z,15
2017-07-05T09:09:36.835Z,15
2017-07-05T09:10:37.445Z,15
2017-07-05T09:11:36.889Z,15
2017-07-05T09:12:36.928Z,15
2017-07-05T09:13:36.965Z,15
2017-07-05T09:14:37.311Z,15
2017-07-05T09:15:37.635Z,15
2017-07-05T09:16:37.041Z,15
2017-07-05T09:17:37.069Z,15
2017-07-05T09:18:37.415Z,15
2017-07-05T09:19:37.127Z,15
2017-07-05T09:20:37.079Z,15
2017-07-05T09:21:36.873Z,15
2017-07-05T09:22:37.530Z,15
2017-07-05T09:23:37.570Z,15
2017-07-05T09:24:37.598Z,15
2017-07-05T09:25:37.868Z,15
2017-07-05T09:26:37.017Z,20
2017-07-05T09:27:37.729Z,20
2017-07-05T09:28:36.757Z,20
2017-07-05T09:29:37.423Z,15
2017-07-05T09:30:37.436Z,15
2017-07-05T09:31:37.805Z,15
2017-07-05T09:32:37.517Z,15
2017-07-05T09:33:37.543Z,15
2017-07-05T09:34:37.260Z,20
2017-07-05T09:35:37.900Z,20
2017-07-05T09:36:37.629Z,20
2017-07-05T09:37:37.969Z,20
2017-07-05T09:38:37.368Z,15
2017-07-05T09:39:37.110Z,20
2017-07-05T09:40:38.363Z,20
2017-07-05T09:41:37.767Z,20
2017-07-05T09:42:37.493Z,20
2017-07-05T09:43:37.502Z,20
2017-07-05T09:44:37.523Z,20
2017-07-05T09:45:37.547Z,20
2017-07-05T09:46:37.916Z,20
2017-07-05T09:47:37.954Z,20
2017-07-05T09:48:37.982Z,20
2017-07-05T09:49:37.684Z,20
2017-07-05T09:50:38.280Z,20
2017-07-05T09:51:38.069Z,20
2017-07-05T09:52:38.090Z,20
2017-07-05T09:53:38.447Z,20
2017-07-05T09:54:38.454Z,20
2017-07-05T09:55:38.744Z,20
2017-07-05T09:56:37.892Z,20
2017-07-05T09:57:38.566Z,20
2017-07-05T09:58:38.263Z,20
2017-07-05T09:59:38.615Z,20
2017-07-05T10:00:38.892Z,20
2017-07-05T10:01:38.033Z,20
2017-07-05T10:02:38.712Z,20
2017-07-05T10:03:38.098Z,20
2017-07-05T10:04:38.136Z,20
2017-07-05T10:05:38.731Z,20
2017-07-05T10:06:38.185Z,20
2017-07-05T10:07:38.213Z,20
2017-07-05T10:08:38.242Z,20
2017-07-05T10:09:38.586Z,20
2017-07-05T10:10:38.930Z,20
2017-07-05T10:11:38.654Z,20
2017-07-05T10:12:38.701Z,20
2017-07-05T10:13:38.711Z,25
2017-07-05T10:14:39.059Z,25
2017-07-05T10:15:39.079Z,25
2017-07-05T10:16:39.128Z,25
2017-07-05T10:17:38.834Z,25
2017-07-05T10:18:38.539Z,25
2017-07-05T10:19:38.884Z,25
2017-07-05T10:20:39.183Z,25
2017-07-05T10:21:39.245Z,25
2017-07-05T10:22:38.966Z,25
2017-07-05T10:23:39.318Z,25
2017-07-05T10:24:39.039Z,25
2017-07-05T10:25:39.314Z,25
2017-07-05T10:26:39.413Z,25
2017-07-05T10:27:39.446Z,25
2017-07-05T10:28:38.834Z,25
2017-07-05T10:29:38.870Z,25
2017-07-05T10:30:39.835Z,25
2017-07-05T10:31:38.933Z,25
2017-07-05T10:32:38.962Z,25
2017-07-05T10:33:39.614Z,25
2017-07-05T10:34:39.655Z,25
2017-07-05T10:35:39.028Z,25
2017-07-05T10:36:40.004Z,25
2017-07-05T10:37:39.098Z,25
2017-07-05T10:38:39.126Z,25
2017-07-05T10:39:39.800Z,25
2017-07-05T10:40:39.504Z,25
2017-07-05T10:41:39.796Z,25
2017-07-05T10:42:39.568Z,25
2017-07-05T10:43:39.595Z,25
2017-07-05T10:44:39.619Z,25
2017-07-05T10:45:39.659Z,25
2017-07-05T10:46:39.626Z,25
2017-07-05T10:47:39.397Z,25
2017-07-05T10:48:39.747Z,25
2017-07-05T10:49:40.143Z,25
2017-07-05T10:50:39.800Z,25
2017-07-05T10:51:40.402Z,25
2017-07-05T10:52:39.853Z,25
2017-07-05T10:53:39.898Z,25
2017-07-05T10:54:39.607Z,25
2017-07-05T10:55:39.957Z,25
2017-07-05T10:56:40.225Z,25
2017-07-05T10:57:40.018Z,25
2017-07-05T10:58:39.719Z,25
2017-07-05T10:59:39.755Z,25
2017-07-05T11:00:40.094Z,30
2017-07-05T11:01:40.697Z,30
2017-07-05T11:02:40.477Z,30
2017-07-05T11:03:40.174Z,30
2017-07-05T11:04:40.208Z,30
2017-07-05T11:05:40.241Z,30
2017-07-05T11:06:40.532Z,30
2017-07-05T11:07:40.624Z,30
2017-07-05T11:08:40.009Z,30
2017-07-05T11:09:40.348Z,30
2017-07-05T11:10:40.104Z,30
2017-07-05T11:11:40.994Z,35
2017-07-05T11:12:40.142Z,35
2017-07-05T11:13:40.485Z,35
2017-07-05T11:14:40.843Z,40
2017-07-05T11:15:39.905Z,40
2017-07-05T11:16:40.180Z,40
2017-07-05T11:17:40.922Z,35
2017-07-05T11:18:40.313Z,40
2017-07-05T11:19:40.673Z,45
2017-07-05T11:20:40.712Z,45
2017-07-05T11:21:40.382Z,45
2017-07-05T11:22:40.103Z,50
2017-07-05T11:23:40.123Z,55
2017-07-05T11:24:41.137Z,55
2017-07-05T11:25:40.832Z,60
2017-07-05T11:26:41.446Z,60
2017-07-05T11:27:41.238Z,65
2017-07-05T11:28:40.627Z,70
2017-07-05T11:29:40.637Z,75
2017-07-05T11:30:41.001Z,80
2017-07-05T11:31:40.994Z,90
2017-07-05T11:32:41.049Z,100
2017-07-05T11:33:40.474Z,160
2017-07-05T11:34:40.783Z,265
2017-07-05T11:35:41.136Z,295
2017-07-05T11:36:41.417Z,290
2017-07-05T11:37:40.575Z,370
2017-07-05T11:38:41.546Z,425
2017-07-05T11:39:40.931Z,365
2017-07-05T11:40:40.981Z,410
2017-07-05T11:41:41.942Z,400
2017-07-05T11:42:41.033Z,480
2017-07-05T11:43:41.703Z,575
2017-07-05T11:44:41.395Z,630
2017-07-05T11:45:41.820Z,650
2017-07-05T11:46:41.454Z,735
2017-07-05T11:47:41.189Z,700
2017-07-05T11:48:41.538Z,700
2017-07-05T11:49:41.564Z,650
2017-07-05T11:50:41.280Z,510
2017-07-05T11:51:41.306Z,450
2017-07-05T11:52:42.231Z,555
2017-07-05T11:53:42.064Z,525
2017-07-05T11:54:42.045Z,655
2017-07-05T11:55:41.429Z,615
2017-07-05T11:56:41.785Z,625
2017-07-05T11:57:42.071Z,470
2017-07-05T11:58:41.851Z,480
2017-07-05T11:59:41.894Z,570
2017-07-05T12:00:41.925Z,590
2017-07-05T12:01:42.330Z,540
2017-07-05T12:02:41.904Z,440
2017-07-05T12:03:41.376Z,515
2017-07-05T12:04:41.405Z,475
2017-07-05T12:05:42.405Z,460
2017-07-05T12:06:42.413Z,465
2017-07-05T12:07:42.112Z,480
2017-07-05T12:08:42.487Z,440
2017-07-05T12:09:42.212Z,445
2017-07-05T12:10:41.925Z,520
2017-07-05T12:11:41.950Z,590
2017-07-05T12:12:42.554Z,555
2017-07-05T12:13:42.336Z,530
2017-07-05T12:14:42.364Z,575
2017-07-05T12:15:42.410Z,650
2017-07-05T12:16:42.438Z,570
2017-07-05T12:17:42.396Z,505
2017-07-05T12:18:42.503Z,480
2017-07-05T12:19:42.220Z,505
2017-07-05T12:20:42.253Z,525
2017-07-05T12:21:42.280Z,590
2017-07-05T12:22:42.565Z,465
2017-07-05T12:23:42.979Z,370
2017-07-05T12:24:42.372Z,345
2017-07-05T12:25:42.737Z,340
2017-07-05T12:26:43.078Z,345
2017-07-05T12:27:43.091Z,395
2017-07-05T12:28:42.820Z,460
2017-07-05T12:29:43.194Z,475
2017-07-05T12:30:43.221Z,455
2017-07-05T12:31:43.258Z,505
2017-07-05T12:32:43.223Z,680
2017-07-05T12:33:42.686Z,785
2017-07-05T12:34:42.716Z,705
2017-07-05T12:35:42.757Z,620
2017-07-05T12:36:43.109Z,620
2017-07-05T12:37:43.133Z,750
2017-07-05T12:38:43.497Z,705
2017-07-05T12:39:43.533Z,560
2017-07-05T12:40:42.913Z,460
2017-07-05T12:41:42.950Z,655
2017-07-05T12:42:43.870Z,680
2017-07-05T12:43:43.360Z,675
2017-07-05T12:44:43.385Z,780
2017-07-05T12:45:43.419Z,840
2017-07-05T12:46:43.463Z,875
2017-07-05T12:47:43.791Z,785
2017-07-05T12:48:43.505Z,775
2017-07-05T12:49:43.557Z,855
2017-07-05T12:50:43.586Z,945
2017-07-05T12:51:43.350Z,945
2017-07-05T12:52:43.907Z,1100
2017-07-05T12:53:44.010Z,1145
2017-07-05T12:54:43.416Z,1110
2017-07-05T12:55:44.086Z,865
2017-07-05T12:56:43.798Z,735
2017-07-05T12:57:44.080Z,910
2017-07-05T12:58:44.191Z,985
2017-07-05T12:59:43.584Z,1170
2017-07-05T13:00:44.261Z,1105
2017-07-05T13:01:44.291Z,950
2017-07-05T13:02:44.243Z,830
2017-07-05T13:03:43.450Z,1020
2017-07-05T13:04:44.394Z,975
2017-07-05T13:05:43.795Z,735
2017-07-05T13:06:44.150Z,520
2017-07-05T13:07:44.470Z,330
2017-07-05T13:08:44.549Z,290
2017-07-05T13:09:44.258Z,275
2017-07-05T13:10:43.961Z,260
2017-07-05T13:11:44.315Z,255
2017-07-05T13:12:44.603Z,245
2017-07-05T13:13:44.400Z,230
2017-07-05T13:14:44.493Z,245
2017-07-05T13:15:44.462Z,240
2017-07-05T13:16:44.492Z,235
2017-07-05T13:17:45.116Z,220
2017-07-05T13:18:44.560Z,195
2017-07-05T13:19:44.605Z,145
2017-07-05T13:20:44.961Z,160
2017-07-05T13:21:44.674Z,165
2017-07-05T13:22:44.954Z,170
2017-07-05T13:23:45.032Z,180
2017-07-05T13:24:44.773Z,185
2017-07-05T13:25:45.158Z,205
2017-07-05T13:26:44.839Z,195
2017-07-05T13:27:45.446Z,175
2017-07-05T13:28:44.920Z,180
2017-07-05T13:29:44.941Z,180
2017-07-05T13:30:45.286Z,170
2017-07-05T13:31:44.702Z,160
2017-07-05T13:32:45.677Z,155
2017-07-05T13:33:45.396Z,150
2017-07-05T13:34:44.801Z,165
2017-07-05T13:35:45.526Z,155
2017-07-05T13:36:45.505Z,150
2017-07-05T13:37:44.904Z,160
2017-07-05T13:38:45.560Z,150
2017-07-05T13:39:44.986Z,160
2017-07-05T13:40:45.317Z,150
2017-07-05T13:41:45.667Z,155
2017-07-05T13:42:45.408Z,155
2017-07-05T13:43:45.677Z,140
2017-07-05T13:44:45.461Z,75
2017-07-05T13:45:45.177Z,140
2017-07-05T13:46:45.210Z,155
2017-07-05T13:47:45.893Z,140
2017-07-05T13:48:45.836Z,135
2017-07-05T13:49:45.949Z,130
2017-07-05T13:50:45.682Z,140
2017-07-05T13:51:45.379Z,135
2017-07-05T13:52:46.060Z,130
2017-07-05T13:53:46.021Z,115
2017-07-05T13:54:46.134Z,120
2017-07-05T13:55:45.834Z,135
2017-07-05T13:56:45.875Z,130
2017-07-05T13:57:46.225Z,115
2017-07-05T13:58:45.929Z,130
2017-07-05T13:59:45.984Z,130
2017-07-05T14:00:46.006Z,125
2017-07-05T14:01:46.047Z,135
2017-07-05T14:02:46.076Z,120
2017-07-05T14:03:45.725Z,115
2017-07-05T14:04:46.469Z,95
2017-07-05T14:05:46.503Z,100
2017-07-05T14:06:45.899Z,115
2017-07-05T14:07:46.260Z,125
2017-07-05T14:08:46.253Z,130
2017-07-05T14:09:46.646Z,125
2017-07-05T14:10:46.022Z,125
2017-07-05T14:11:46.707Z,120
2017-07-05T14:12:46.748Z,120
2017-07-05T14:13:47.066Z,110
2017-07-05T14:14:46.181Z,90
2017-07-05T14:15:46.218Z,80
2017-07-05T14:16:46.240Z,110
2017-07-05T14:17:46.577Z,115
2017-07-05T14:18:46.925Z,115
2017-07-05T14:19:46.656Z,115
2017-07-05T14:20:46.703Z,110
2017-07-05T14:21:46.719Z,110
2017-07-05T14:22:46.744Z,110